Wetterdaten: Woche 01.11.04 - 07.11.04 (KW45)
Datum Zeit Temperatur Luftfeuchte Luftdruck Niederschlag Taupunkt Windchill Wind
01.11.2004 00:00 8,5 C 100 % 1015 hPa 0,0 l/m 8,5 C 4,1 C 15,0 km/h (3 Bft)
01.11.2004 01:00 8,6 C 100 % 1015 hPa 0,0 l/m 8,6 C 4,1 C 15,1 km/h (3 Bft)
01.11.2004 02:00 8,8 C 97 % 1014 hPa 0,0 l/m 8,3 C 2,8 C 19,4 km/h (3 Bft)
01.11.2004 03:00 8,8 C 97 % 1014 hPa 0,0 l/m 8,3 C 4,1 C 15,3 km/h (3 Bft)
01.11.2004 04:00 8,7 C 97 % 1013 hPa 0,0 l/m 8,3 C 4,0 C 16,2 km/h (3 Bft)
01.11.2004 05:00 8,6 C 97 % 1013 hPa 0,0 l/m 8,2 C 2,9 C 19,0 km/h (3 Bft)
01.11.2004 06:00 8,5 C 97 % 1013 hPa 0,0 l/m 8,0 C 3,9 C 15,7 km/h (3 Bft)
01.11.2004 07:00 8,5 C 97 % 1013 hPa 0,0 l/m 8,1 C 3,6 C 16,6 km/h (3 Bft)
01.11.2004 08:00 8,7 C 97 % 1014 hPa 0,0 l/m 8,2 C 4,3 C 14,7 km/h (3 Bft)
01.11.2004 09:00 8,9 C 97 % 1014 hPa 0,0 l/m 8,4 C 5,3 C 13,2 km/h (3 Bft)
01.11.2004 10:00 9,1 C 97 % 1014 hPa 0,0 l/m 8,6 C 4,9 C 13,9 km/h (3 Bft)
01.11.2004 11:00 9,3 C 96 % 1015 hPa 0,0 l/m 8,7 C 7,1 C 10,5 km/h (2 Bft)
01.11.2004 12:00 9,5 C 95 % 1015 hPa 0,0 l/m 8,8 C 8,6 C 7,3 km/h (2 Bft)
01.11.2004 13:00 9,6 C 95 % 1014 hPa 0,0 l/m 8,9 C 8,4 C 7,3 km/h (2 Bft)
01.11.2004 14:00 9,5 C 96 % 1015 hPa 0,0 l/m 8,9 C 8,9 C 3,6 km/h (1 Bft)
01.11.2004 15:00 9,4 C 96 % 1015 hPa 0,0 l/m 8,8 C 9,4 C 0,0 km/h (0 Bft)
01.11.2004 16:00 9,2 C 98 % 1015 hPa 0,0 l/m 9,0 C 9,2 C 0,9 km/h (0 Bft)
01.11.2004 17:00 9,1 C 100 % 1015 hPa 0,0 l/m 9,1 C 9,1 C 0,3 km/h (0 Bft)
01.11.2004 18:00 9,1 C 100 % 1015 hPa 0,0 l/m 9,1 C 9,1 C 0,0 km/h (0 Bft)
01.11.2004 19:00 9,1 C 100 % 1016 hPa 0,0 l/m 9,1 C 9,1 C 0,0 km/h (0 Bft)
01.11.2004 20:00 9,0 C 100 % 1016 hPa 0,0 l/m 9,0 C 9,0 C 0,0 km/h (0 Bft)
01.11.2004 21:00 9,0 C 100 % 1016 hPa 0,0 l/m 9,0 C 9,0 C 0,0 km/h (0 Bft)
01.11.2004 22:00 9,0 C 100 % 1016 hPa 0,0 l/m 9,0 C 8,9 C 0,8 km/h (0 Bft)
01.11.2004 23:00 9,0 C 100 % 1017 hPa 0,0 l/m 9,0 C 9,0 C 0,0 km/h (0 Bft)
02.11.2004 00:00 9,0 C 100 % 1017 hPa 0,0 l/m 9,0 C 9,0 C 0,0 km/h (0 Bft)
02.11.2004 01:00 9,0 C 100 % 1017 hPa 0,0 l/m 9,0 C 9,0 C 0,7 km/h (0 Bft)
02.11.2004 02:00 8,9 C 100 % 1017 hPa 0,0 l/m 8,9 C 8,9 C 0,9 km/h (0 Bft)
02.11.2004 03:00 8,9 C 100 % 1017 hPa 0,0 l/m 8,9 C 8,9 C 0,0 km/h (0 Bft)
02.11.2004 04:00 8,9 C 100 % 1017 hPa 0,0 l/m 8,9 C 8,9 C 0,0 km/h (0 Bft)
02.11.2004 05:00 8,9 C 100 % 1017 hPa 0,0 l/m 8,9 C 8,9 C 0,0 km/h (0 Bft)
02.11.2004 06:00 8,9 C 100 % 1017 hPa 0,0 l/m 8,9 C 8,9 C 0,0 km/h (0 Bft)
02.11.2004 07:00 8,8 C 100 % 1017 hPa 0,0 l/m 8,8 C 8,8 C 0,2 km/h (0 Bft)
02.11.2004 08:00 9,0 C 100 % 1018 hPa 0,0 l/m 9,0 C 8,8 C 3,6 km/h (1 Bft)
02.11.2004 09:00 9,5 C 100 % 1018 hPa 0,0 l/m 9,4 C 7,9 C 9,5 km/h (2 Bft)
02.11.2004 10:00 10,2 C 93 % 1017 hPa 0,0 l/m 9,1 C 7,1 C 13,1 km/h (3 Bft)
02.11.2004 11:00 11,3 C 83 % 1017 hPa 0,0 l/m 8,5 C 7,5 C 14,9 km/h (3 Bft)
02.11.2004 12:00 11,4 C 81 % 1016 hPa 0,0 l/m 8,2 C 7,4 C 15,4 km/h (3 Bft)
02.11.2004 13:00 11,6 C 80 % 1016 hPa 0,0 l/m 8,3 C 7,5 C 16,0 km/h (3 Bft)
02.11.2004 14:00 11,2 C 82 % 1015 hPa 0,0 l/m 8,3 C 7,4 C 14,9 km/h (3 Bft)
02.11.2004 15:00 10,7 C 86 % 1016 hPa 0,0 l/m 8,5 C 7,2 C 14,2 km/h (3 Bft)
02.11.2004 16:00 10,2 C 89 % 1015 hPa 0,0 l/m 8,5 C 7,1 C 12,9 km/h (3 Bft)
02.11.2004 17:00 10,1 C 92 % 1016 hPa 0,0 l/m 8,8 C 7,3 C 12,6 km/h (3 Bft)
02.11.2004 18:00 10,0 C 93 % 1016 hPa 0,0 l/m 8,9 C 7,3 C 12,4 km/h (3 Bft)
02.11.2004 19:00 10,0 C 94 % 1016 hPa 0,0 l/m 9,1 C 6,6 C 13,0 km/h (3 Bft)
02.11.2004 20:00 10,0 C 95 % 1016 hPa 0,0 l/m 9,2 C 8,7 C 8,2 km/h (2 Bft)
02.11.2004 21:00 9,8 C 96 % 1016 hPa 0,0 l/m 9,3 C 8,2 C 8,0 km/h (2 Bft)
02.11.2004 22:00 9,7 C 97 % 1017 hPa 0,0 l/m 9,2 C 9,1 C 5,0 km/h (1 Bft)
02.11.2004 23:00 9,5 C 98 % 1017 hPa 0,0 l/m 9,2 C 9,1 C 3,5 km/h (1 Bft)
03.11.2004 00:00 9,3 C 99 % 1017 hPa 0,0 l/m 9,2 C 9,3 C 0,0 km/h (0 Bft)
03.11.2004 01:00 9,2 C 100 % 1017 hPa 0,0 l/m 9,2 C 9,2 C 1,6 km/h (1 Bft)
03.11.2004 02:00 9,2 C 100 % 1018 hPa 0,0 l/m 9,2 C 9,1 C 2,3 km/h (1 Bft)
03.11.2004 03:00 9,3 C 100 % 1018 hPa 0,0 l/m 9,3 C 9,0 C 3,2 km/h (1 Bft)
03.11.2004 04:00 9,4 C 100 % 1019 hPa 0,0 l/m 9,4 C 8,3 C 7,5 km/h (2 Bft)
03.11.2004 05:00 9,4 C 100 % 1019 hPa 0,0 l/m 9,4 C 9,3 C 1,4 km/h (1 Bft)
03.11.2004 06:00 9,3 C 100 % 1019 hPa 0,0 l/m 9,3 C 9,3 C 0,2 km/h (0 Bft)
03.11.2004 07:00 9,3 C 100 % 1020 hPa 0,0 l/m 9,3 C 9,3 C 0,0 km/h (0 Bft)
03.11.2004 08:00 9,6 C 100 % 1020 hPa 0,0 l/m 9,6 C 9,6 C 0,3 km/h (0 Bft)
03.11.2004 09:00 10,1 C 98 % 1021 hPa 0,0 l/m 9,8 C 9,9 C 3,6 km/h (1 Bft)
03.11.2004 10:00 10,8 C 92 % 1021 hPa 0,0 l/m 9,5 C 10,2 C 5,8 km/h (2 Bft)
03.11.2004 11:00 11,6 C 87 % 1021 hPa 0,0 l/m 9,5 C 11,3 C 3,3 km/h (1 Bft)
03.11.2004 12:00 12,7 C 82 % 1021 hPa 0,0 l/m 9,7 C 12,3 C 3,9 km/h (1 Bft)
03.11.2004 13:00 13,7 C 77 % 1020 hPa 0,0 l/m 9,8 C 13,7 C 1,7 km/h (1 Bft)
03.11.2004 14:00 13,8 C 76 % 1020 hPa 0,0 l/m 9,8 C 13,8 C 0,4 km/h (0 Bft)
03.11.2004 15:00 13,5 C 79 % 1020 hPa 0,0 l/m 9,9 C 13,4 C 2,6 km/h (1 Bft)
03.11.2004 16:00 12,8 C 83 % 1020 hPa 0,0 l/m 10,0 C 12,6 C 4,3 km/h (1 Bft)
03.11.2004 17:00 11,8 C 89 % 1020 hPa 0,0 l/m 10,0 C 10,2 C 10,3 km/h (2 Bft)
03.11.2004 18:00 11,1 C 92 % 1020 hPa 0,0 l/m 9,9 C 9,6 C 9,2 km/h (2 Bft)
03.11.2004 19:00 10,9 C 94 % 1020 hPa 0,0 l/m 9,9 C 9,6 C 8,6 km/h (2 Bft)
03.11.2004 20:00 10,5 C 95 % 1019 hPa 0,0 l/m 9,7 C 9,3 C 9,0 km/h (2 Bft)
03.11.2004 21:00 10,2 C 97 % 1019 hPa 0,0 l/m 9,7 C 9,3 C 7,3 km/h (2 Bft)
03.11.2004 22:00 10,0 C 98 % 1019 hPa 0,0 l/m 9,7 C 9,5 C 6,6 km/h (2 Bft)
03.11.2004 23:00 9,9 C 99 % 1019 hPa 0,0 l/m 9,7 C 9,6 C 3,8 km/h (1 Bft)
04.11.2004 00:00 9,7 C 100 % 1019 hPa 0,0 l/m 9,7 C 9,5 C 3,4 km/h (1 Bft)
04.11.2004 01:00 9,5 C 100 % 1019 hPa 0,0 l/m 9,5 C 9,5 C 1,2 km/h (1 Bft)
04.11.2004 02:00 9,3 C 100 % 1019 hPa 0,0 l/m 9,3 C 8,7 C 5,0 km/h (1 Bft)
04.11.2004 03:00 9,1 C 100 % 1019 hPa 0,0 l/m 9,1 C 7,2 C 10,3 km/h (2 Bft)
04.11.2004 04:00 9,1 C 100 % 1020 hPa 0,0 l/m 9,1 C 7,8 C 9,0 km/h (2 Bft)
04.11.2004 05:00 9,3 C 100 % 1020 hPa 0,0 l/m 9,3 C 7,9 C 9,6 km/h (2 Bft)
04.11.2004 06:00 9,5 C 100 % 1020 hPa 0,0 l/m 9,5 C 8,7 C 7,1 km/h (2 Bft)
04.11.2004 07:00 9,5 C 100 % 1021 hPa 0,0 l/m 9,5 C 9,0 C 5,9 km/h (2 Bft)
04.11.2004 08:00 9,8 C 100 % 1021 hPa 0,0 l/m 9,8 C 9,2 C 6,2 km/h (2 Bft)
04.11.2004 09:00 10,2 C 100 % 1021 hPa 1,0 l/m 10,2 C 9,1 C 8,1 km/h (2 Bft)
04.11.2004 10:00 10,8 C 99 % 1022 hPa 0,0 l/m 10,6 C 9,7 C 8,3 km/h (2 Bft)
04.11.2004 11:00 11,4 C 95 % 1022 hPa 0,0 l/m 10,7 C 10,4 C 8,1 km/h (2 Bft)
04.11.2004 12:00 12,4 C 90 % 1021 hPa 0,0 l/m 10,8 C 10,9 C 9,5 km/h (2 Bft)
04.11.2004 13:00 13,4 C 85 % 1021 hPa 0,0 l/m 10,9 C 12,0 C 9,9 km/h (2 Bft)
04.11.2004 14:00 13,7 C 83 % 1021 hPa 0,0 l/m 10,9 C 12,3 C 10,1 km/h (2 Bft)
04.11.2004 15:00 13,5 C 84 % 1021 hPa 0,0 l/m 10,8 C 12,8 C 6,8 km/h (2 Bft)
04.11.2004 16:00 12,5 C 88 % 1022 hPa 0,0 l/m 10,6 C 12,3 C 3,5 km/h (1 Bft)
04.11.2004 17:00 11,7 C 91 % 1022 hPa 0,0 l/m 10,3 C 11,7 C 0,0 km/h (0 Bft)
04.11.2004 18:00 10,8 C 94 % 1022 hPa 0,0 l/m 9,8 C 10,8 C 0,0 km/h (0 Bft)
04.11.2004 19:00 10,0 C 95 % 1022 hPa 0,0 l/m 9,3 C 10,0 C 0,0 km/h (0 Bft)
04.11.2004 20:00 9,6 C 97 % 1022 hPa 0,0 l/m 9,1 C 9,6 C 0,0 km/h (0 Bft)
04.11.2004 21:00 9,4 C 98 % 1023 hPa 0,0 l/m 9,1 C 9,4 C 0,0 km/h (0 Bft)
04.11.2004 22:00 9,4 C 100 % 1023 hPa 0,0 l/m 9,4 C 9,4 C 0,0 km/h (0 Bft)
04.11.2004 23:00 9,5 C 100 % 1023 hPa 0,0 l/m 9,5 C 9,2 C 5,4 km/h (1 Bft)
05.11.2004 00:00 9,8 C 100 % 1023 hPa 0,0 l/m 9,8 C 8,1 C 9,6 km/h (2 Bft)
05.11.2004 01:00 9,8 C 100 % 1023 hPa 0,0 l/m 9,8 C 7,6 C 10,3 km/h (2 Bft)
05.11.2004 02:00 9,6 C 100 % 1022 hPa 0,0 l/m 9,6 C 8,4 C 8,6 km/h (2 Bft)
05.11.2004 03:00 9,4 C 100 % 1022 hPa 0,0 l/m 9,4 C 9,0 C 3,4 km/h (1 Bft)
05.11.2004 04:00 9,4 C 100 % 1022 hPa 0,0 l/m 9,4 C 8,6 C 8,7 km/h (2 Bft)
05.11.2004 05:00 9,6 C 100 % 1023 hPa 0,0 l/m 9,6 C 8,3 C 8,7 km/h (2 Bft)
05.11.2004 06:00 9,7 C 100 % 1023 hPa 0,0 l/m 9,7 C 9,3 C 5,7 km/h (1 Bft)
05.11.2004 07:00 9,9 C 100 % 1023 hPa 0,0 l/m 9,9 C 9,8 C 1,3 km/h (1 Bft)
05.11.2004 08:00 10,1 C 100 % 1024 hPa 0,0 l/m 10,1 C 10,1 C 0,0 km/h (0 Bft)
05.11.2004 09:00 10,3 C 100 % 1025 hPa 1,0 l/m 10,3 C 10,3 C 1,4 km/h (1 Bft)
05.11.2004 10:00 10,3 C 100 % 1025 hPa 0,0 l/m 10,3 C 9,4 C 8,4 km/h (2 Bft)
05.11.2004 11:00 10,1 C 100 % 1026 hPa 0,0 l/m 10,1 C 7,8 C 11,5 km/h (2 Bft)
05.11.2004 12:00 10,0 C 99 % 1025 hPa 0,0 l/m 9,9 C 9,6 C 5,2 km/h (1 Bft)
05.11.2004 13:00 10,3 C 95 % 1025 hPa 0,0 l/m 9,4 C 9,0 C 8,7 km/h (2 Bft)
05.11.2004 14:00 10,6 C 90 % 1025 hPa 0,0 l/m 9,1 C 10,4 C 1,7 km/h (1 Bft)
05.11.2004 15:00 10,5 C 88 % 1025 hPa 0,0 l/m 8,6 C 9,1 C 9,1 km/h (2 Bft)
05.11.2004 16:00 9,8 C 85 % 1025 hPa 0,0 l/m 7,5 C 8,9 C 8,0 km/h (2 Bft)
05.11.2004 17:00 9,4 C 85 % 1026 hPa 0,0 l/m 7,0 C 9,0 C 5,0 km/h (1 Bft)
05.11.2004 18:00 8,8 C 86 % 1026 hPa 0,0 l/m 6,5 C 6,9 C 9,9 km/h (2 Bft)
05.11.2004 19:00 7,6 C 85 % 1027 hPa 0,0 l/m 5,2 C 6,3 C 9,2 km/h (2 Bft)
05.11.2004 20:00 6,5 C 87 % 1027 hPa 0,0 l/m 4,5 C 6,1 C 2,5 km/h (1 Bft)
05.11.2004 21:00 5,5 C 89 % 1027 hPa 0,0 l/m 3,8 C 5,5 C 0,0 km/h (0 Bft)
05.11.2004 22:00 5,2 C 93 % 1027 hPa 0,0 l/m 4,2 C 5,2 C 0,0 km/h (0 Bft)
05.11.2004 23:00 5,6 C 95 % 1026 hPa 0,0 l/m 4,9 C 5,6 C 0,0 km/h (0 Bft)
06.11.2004 00:00 5,7 C 95 % 1026 hPa 0,0 l/m 4,9 C 5,7 C 0,0 km/h (0 Bft)
06.11.2004 01:00 5,3 C 94 % 1025 hPa 0,0 l/m 4,4 C 5,3 C 0,0 km/h (0 Bft)
06.11.2004 02:00 5,2 C 94 % 1025 hPa 0,0 l/m 4,3 C 5,2 C 0,0 km/h (0 Bft)
06.11.2004 03:00 4,9 C 93 % 1025 hPa 0,0 l/m 3,9 C 4,9 C 0,9 km/h (0 Bft)
06.11.2004 04:00 4,8 C 91 % 1025 hPa 0,0 l/m 3,5 C 4,8 C 2,0 km/h (1 Bft)
06.11.2004 05:00 4,5 C 90 % 1024 hPa 0,0 l/m 3,0 C 4,5 C 3,6 km/h (1 Bft)
06.11.2004 06:00 4,4 C 89 % 1024 hPa 0,0 l/m 2,8 C 3,7 C 6,0 km/h (2 Bft)
06.11.2004 07:00 4,4 C 90 % 1024 hPa 0,0 l/m 2,8 C 4,3 C 3,6 km/h (1 Bft)
06.11.2004 08:00 4,9 C 89 % 1024 hPa 0,0 l/m 3,3 C 4,9 C 1,5 km/h (1 Bft)
06.11.2004 09:00 5,8 C 82 % 1024 hPa 0,0 l/m 3,0 C 3,8 C 9,5 km/h (2 Bft)
06.11.2004 10:00 6,3 C 77 % 1024 hPa 0,0 l/m 2,5 C 4,8 C 9,0 km/h (2 Bft)
06.11.2004 11:00 7,1 C 71 % 1023 hPa 0,0 l/m 2,1 C 4,6 C 11,0 km/h (2 Bft)
06.11.2004 12:00 7,7 C 63 % 1023 hPa 0,0 l/m 1,0 C 4,8 C 11,4 km/h (2 Bft)
06.11.2004 13:00 8,5 C 58 % 1022 hPa 0,0 l/m 0,8 C 7,4 C 7,8 km/h (2 Bft)
06.11.2004 14:00 7,8 C 63 % 1021 hPa 0,0 l/m 1,3 C 6,8 C 8,6 km/h (2 Bft)
06.11.2004 15:00 7,5 C 66 % 1021 hPa 0,0 l/m 1,5 C 6,0 C 8,2 km/h (2 Bft)
06.11.2004 16:00 6,8 C 69 % 1022 hPa 0,0 l/m 1,6 C 4,4 C 10,8 km/h (2 Bft)
06.11.2004 17:00 5,9 C 73 % 1022 hPa 0,0 l/m 1,4 C 4,7 C 7,9 km/h (2 Bft)
06.11.2004 18:00 5,0 C 77 % 1022 hPa 0,0 l/m 1,3 C 4,6 C 3,9 km/h (1 Bft)
06.11.2004 19:00 4,9 C 79 % 1022 hPa 0,0 l/m 1,6 C 4,8 C 3,8 km/h (1 Bft)
06.11.2004 20:00 4,8 C 82 % 1022 hPa 0,0 l/m 2,0 C 3,6 C 8,7 km/h (2 Bft)
06.11.2004 21:00 4,8 C 86 % 1022 hPa 0,0 l/m 2,6 C 3,1 C 9,4 km/h (2 Bft)
06.11.2004 22:00 5,1 C 83 % 1021 hPa 0,0 l/m 2,5 C 3,9 C 8,6 km/h (2 Bft)
06.11.2004 23:00 5,3 C 83 % 1021 hPa 0,0 l/m 2,6 C 3,8 C 8,9 km/h (2 Bft)
07.11.2004 00:00 5,5 C 82 % 1021 hPa 0,0 l/m 2,7 C 2,8 C 10,7 km/h (2 Bft)
07.11.2004 01:00 5,5 C 81 % 1020 hPa 0,0 l/m 2,6 C 1,9 C 13,4 km/h (3 Bft)
07.11.2004 02:00 5,6 C 82 % 1020 hPa 0,0 l/m 2,7 C 1,8 C 13,8 km/h (3 Bft)
07.11.2004 03:00 5,3 C 89 % 1019 hPa 1,0 l/m 3,5 C 3,5 C 9,6 km/h (2 Bft)
07.11.2004 04:00 5,1 C 94 % 1019 hPa 0,0 l/m 4,2 C 2,3 C 11,4 km/h (2 Bft)
07.11.2004 05:00 5,0 C 94 % 1018 hPa 0,0 l/m 4,1 C 2,9 C 9,4 km/h (2 Bft)
07.11.2004 06:00 4,9 C 95 % 1018 hPa 0,0 l/m 4,1 C 4,7 C 1,5 km/h (1 Bft)
07.11.2004 07:00 3,9 C 94 % 1019 hPa 1,0 l/m 2,9 C 3,0 C 3,9 km/h (1 Bft)
07.11.2004 08:00 3,7 C 95 % 1019 hPa 0,0 l/m 2,9 C 3,5 C 2,0 km/h (1 Bft)
07.11.2004 09:00 4,4 C 93 % 1018 hPa 0,0 l/m 3,4 C 2,4 C 9,3 km/h (2 Bft)
07.11.2004 10:00 5,0 C 81 % 1019 hPa 0,0 l/m 1,9 C 1,6 C 12,0 km/h (2 Bft)
07.11.2004 11:00 5,0 C 77 % 1019 hPa 0,0 l/m 1,3 C 2,9 C 9,8 km/h (2 Bft)
07.11.2004 12:00 5,3 C 76 % 1018 hPa 0,0 l/m 1,4 C 4,1 C 8,1 km/h (2 Bft)
07.11.2004 13:00 5,5 C 73 % 1018 hPa 0,0 l/m 1,0 C 4,2 C 8,1 km/h (2 Bft)
07.11.2004 14:00 5,3 C 72 % 1018 hPa 0,0 l/m 0,7 C 1,9 C 12,5 km/h (3 Bft)
07.11.2004 15:00 5,3 C 71 % 1018 hPa 0,0 l/m 0,4 C 2,3 C 11,5 km/h (2 Bft)
07.11.2004 16:00 4,6 C 75 % 1018 hPa 0,0 l/m 0,6 C 3,4 C 7,3 km/h (2 Bft)
07.11.2004 17:00 3,9 C 79 % 1018 hPa 0,0 l/m 0,7 C 3,6 C 4,7 km/h (1 Bft)
07.11.2004 18:00 3,1 C 87 % 1019 hPa 0,0 l/m 1,1 C 1,0 C 9,2 km/h (2 Bft)
07.11.2004 19:00 2,3 C 91 % 1019 hPa 0,0 l/m 0,9 C 2,3 C 0,0 km/h (0 Bft)
07.11.2004 20:00 1,8 C 94 % 1019 hPa 0,0 l/m 0,9 C 1,8 C 0,4 km/h (0 Bft)
07.11.2004 21:00 2,0 C 97 % 1019 hPa 0,0 l/m 1,5 C 2,0 C 3,0 km/h (1 Bft)
07.11.2004 22:00 1,6 C 97 % 1019 hPa 0,0 l/m 1,2 C 1,6 C 0,8 km/h (0 Bft)
07.11.2004 23:00 1,4 C 97 % 1019 hPa 0,0 l/m 1,0 C 1,4 C 0,0 km/h (0 Bft)
Min-Datum _ 07.11.04 06.11.04 01.11.04 - 06.11.04 07.11.04 01.11.04
_ Min-Zeit 23:08 12:52 05:57 - 12:52 18:12 00:12
Minimum _ 1,3 C 55 % 1012 hPa - -0,0 C -5,0 C 0,0 km/h (0 Bft)
Max-Datum _ 03.11.04 01.11.04 05.11.04 04.11.04 04.11.04 03.11.04 01.11.04
_ Max-Zeit 13:43 00:00 19:27 09:11 13:52 13:43 05:46
Maximum _ 14,0 C 100 % 1027 hPa 1,0 l/m 11,2 C 14,0 C 34,8 km/h
N (5 Bft)
Durchschnitt _ 8,4 C 92 % 1020 hPa #4,0 l/m 7,1 C 7,2 C 6,3 km/h (2 Bft)

Durchschnitt Minimum Temp.8,2 C
Durchschnitt Maximum Temp.8,7 C